sensor_id;sensor_type;location;lat;lon;timestamp;P1;durP1;ratioP1;P2;durP2;ratioP2
12312;SDS011;6220;53.580;9.758;2023-02-26T00:01:31;2.57;;;1.77;;
12312;SDS011;6220;53.580;9.758;2023-02-26T00:03:58;5.07;;;1.87;;
12312;SDS011;6220;53.580;9.758;2023-02-26T00:06:25;4.90;;;1.90;;
12312;SDS011;6220;53.580;9.758;2023-02-26T00:08:51;7.70;;;1.57;;
12312;SDS011;6220;53.580;9.758;2023-02-26T00:11:17;3.43;;;1.67;;
12312;SDS011;6220;53.580;9.758;2023-02-26T00:13:43;4.43;;;1.87;;
12312;SDS011;6220;53.580;9.758;2023-02-26T00:16:31;3.17;;;1.50;;
12312;SDS011;6220;53.580;9.758;2023-02-26T00:18:56;5.13;;;1.80;;
12312;SDS011;6220;53.580;9.758;2023-02-26T00:21:24;4.27;;;1.83;;
12312;SDS011;6220;53.580;9.758;2023-02-26T00:23:50;3.40;;;1.70;;
12312;SDS011;6220;53.580;9.758;2023-02-26T00:26:16;5.10;;;2.10;;
12312;SDS011;6220;53.580;9.758;2023-02-26T00:28:42;6.53;;;1.90;;
12312;SDS011;6220;53.580;9.758;2023-02-26T00:31:07;3.27;;;1.97;;
12312;SDS011;6220;53.580;9.758;2023-02-26T00:33:33;4.00;;;1.70;;
12312;SDS011;6220;53.580;9.758;2023-02-26T00:36:02;3.80;;;1.90;;
12312;SDS011;6220;53.580;9.758;2023-02-26T00:38:55;4.07;;;1.70;;
12312;SDS011;6220;53.580;9.758;2023-02-26T00:41:27;5.00;;;1.60;;
12312;SDS011;6220;53.580;9.758;2023-02-26T00:43:53;4.63;;;1.80;;
12312;SDS011;6220;53.580;9.758;2023-02-26T00:46:26;3.00;;;1.50;;
12312;SDS011;6220;53.580;9.758;2023-02-26T00:48:59;2.50;;;1.53;;
12312;SDS011;6220;53.580;9.758;2023-02-26T00:51:35;2.13;;;1.40;;
12312;SDS011;6220;53.580;9.758;2023-02-26T00:56:31;6.17;;;1.70;;
12312;SDS011;6220;53.580;9.758;2023-02-26T00:58:57;2.57;;;1.70;;
12312;SDS011;6220;53.580;9.758;2023-02-26T01:01:22;7.00;;;1.80;;
12312;SDS011;6220;53.580;9.758;2023-02-26T01:03:47;4.87;;;1.73;;
12312;SDS011;6220;53.580;9.758;2023-02-26T01:06:14;2.53;;;1.47;;
12312;SDS011;6220;53.580;9.758;2023-02-26T01:08:56;4.63;;;2.13;;
12312;SDS011;6220;53.580;9.758;2023-02-26T01:11:26;2.07;;;1.67;;
12312;SDS011;6220;53.580;9.758;2023-02-26T01:13:52;4.00;;;1.40;;
12312;SDS011;6220;53.580;9.758;2023-02-26T01:16:20;2.53;;;1.70;;
12312;SDS011;6220;53.580;9.758;2023-02-26T01:18:52;3.47;;;1.70;;
12312;SDS011;6220;53.580;9.758;2023-02-26T01:21:43;3.90;;;1.53;;
12312;SDS011;6220;53.580;9.758;2023-02-26T01:24:08;4.23;;;2.00;;
12312;SDS011;6220;53.580;9.758;2023-02-26T01:26:35;4.80;;;1.77;;
12312;SDS011;6220;53.580;9.758;2023-02-26T01:29:01;2.90;;;1.97;;
12312;SDS011;6220;53.580;9.758;2023-02-26T01:34:05;1.90;;;1.70;;
12312;SDS011;6220;53.580;9.758;2023-02-26T01:37:01;5.50;;;1.80;;
12312;SDS011;6220;53.580;9.758;2023-02-26T01:39:38;3.93;;;1.90;;
12312;SDS011;6220;53.580;9.758;2023-02-26T01:48:02;3.90;;;2.10;;
12312;SDS011;6220;53.580;9.758;2023-02-26T01:50:29;2.40;;;1.50;;
12312;SDS011;6220;53.580;9.758;2023-02-26T01:53:17;3.50;;;1.90;;
12312;SDS011;6220;53.580;9.758;2023-02-26T01:55:44;4.53;;;1.80;;
12312;SDS011;6220;53.580;9.758;2023-02-26T01:58:15;2.97;;;1.80;;
12312;SDS011;6220;53.580;9.758;2023-02-26T02:00:42;2.90;;;1.80;;
12312;SDS011;6220;53.580;9.758;2023-02-26T02:03:07;3.83;;;1.93;;
12312;SDS011;6220;53.580;9.758;2023-02-26T02:05:46;3.80;;;1.70;;
12312;SDS011;6220;53.580;9.758;2023-02-26T02:08:33;5.40;;;2.00;;
12312;SDS011;6220;53.580;9.758;2023-02-26T02:11:00;2.70;;;1.60;;
12312;SDS011;6220;53.580;9.758;2023-02-26T02:13:45;4.73;;;1.80;;
12312;SDS011;6220;53.580;9.758;2023-02-26T02:16:27;4.77;;;1.73;;
12312;SDS011;6220;53.580;9.758;2023-02-26T02:21:43;3.80;;;1.80;;
12312;SDS011;6220;53.580;9.758;2023-02-26T02:24:26;2.40;;;1.60;;
12312;SDS011;6220;53.580;9.758;2023-02-26T02:26:56;10.80;;;2.00;;
12312;SDS011;6220;53.580;9.758;2023-02-26T02:34:48;4.07;;;1.70;;
12312;SDS011;6220;53.580;9.758;2023-02-26T02:37:20;5.93;;;1.80;;
12312;SDS011;6220;53.580;9.758;2023-02-26T02:39:55;4.43;;;1.93;;
12312;SDS011;6220;53.580;9.758;2023-02-26T02:45:24;4.23;;;1.60;;
12312;SDS011;6220;53.580;9.758;2023-02-26T02:47:58;4.00;;;1.83;;
12312;SDS011;6220;53.580;9.758;2023-02-26T02:50:31;5.20;;;1.70;;
12312;SDS011;6220;53.580;9.758;2023-02-26T02:53:01;2.53;;;1.53;;
12312;SDS011;6220;53.580;9.758;2023-02-26T02:55:33;5.10;;;1.77;;
12312;SDS011;6220;53.580;9.758;2023-02-26T02:58:02;5.60;;;1.60;;
12312;SDS011;6220;53.580;9.758;2023-02-26T03:00:31;3.20;;;1.60;;
12312;SDS011;6220;53.580;9.758;2023-02-26T03:03:00;3.23;;;1.50;;
12312;SDS011;6220;53.580;9.758;2023-02-26T03:05:33;3.03;;;1.70;;
12312;SDS011;6220;53.580;9.758;2023-02-26T03:08:03;3.70;;;1.60;;
12312;SDS011;6220;53.580;9.758;2023-02-26T03:10:31;2.87;;;1.77;;
12312;SDS011;6220;53.580;9.758;2023-02-26T03:12:56;2.70;;;1.43;;
12312;SDS011;6220;53.580;9.758;2023-02-26T03:27:08;6.00;;;1.93;;
12312;SDS011;6220;53.580;9.758;2023-02-26T03:29:37;3.83;;;1.80;;
12312;SDS011;6220;53.580;9.758;2023-02-26T03:32:07;4.70;;;1.70;;
12312;SDS011;6220;53.580;9.758;2023-02-26T03:34:41;4.37;;;1.53;;
12312;SDS011;6220;53.580;9.758;2023-02-26T03:37:20;6.33;;;2.33;;
12312;SDS011;6220;53.580;9.758;2023-02-26T03:40:01;4.03;;;2.00;;
12312;SDS011;6220;53.580;9.758;2023-02-26T03:42:32;3.43;;;1.30;;
12312;SDS011;6220;53.580;9.758;2023-02-26T03:45:09;3.87;;;1.73;;
12312;SDS011;6220;53.580;9.758;2023-02-26T03:47:38;4.73;;;1.47;;
12312;SDS011;6220;53.580;9.758;2023-02-26T03:50:11;4.17;;;1.77;;
12312;SDS011;6220;53.580;9.758;2023-02-26T03:52:40;3.67;;;1.50;;
12312;SDS011;6220;53.580;9.758;2023-02-26T03:55:17;2.23;;;1.33;;
12312;SDS011;6220;53.580;9.758;2023-02-26T03:57:44;3.97;;;1.70;;
12312;SDS011;6220;53.580;9.758;2023-02-26T04:00:10;2.57;;;1.43;;
12312;SDS011;6220;53.580;9.758;2023-02-26T04:02:37;3.13;;;1.67;;
12312;SDS011;6220;53.580;9.758;2023-02-26T04:05:09;4.57;;;1.23;;
12312;SDS011;6220;53.580;9.758;2023-02-26T04:07:38;4.87;;;1.60;;
12312;SDS011;6220;53.580;9.758;2023-02-26T04:10:04;2.57;;;1.37;;
12312;SDS011;6220;53.580;9.758;2023-02-26T04:12:30;4.57;;;2.03;;
12312;SDS011;6220;53.580;9.758;2023-02-26T04:14:56;4.03;;;1.80;;
12312;SDS011;6220;53.580;9.758;2023-02-26T04:17:21;4.77;;;1.63;;
12312;SDS011;6220;53.580;9.758;2023-02-26T04:19:46;3.73;;;1.60;;
12312;SDS011;6220;53.580;9.758;2023-02-26T04:22:12;4.73;;;1.87;;
12312;SDS011;6220;53.580;9.758;2023-02-26T04:24:37;3.60;;;1.60;;
12312;SDS011;6220;53.580;9.758;2023-02-26T04:27:02;3.77;;;1.63;;
12312;SDS011;6220;53.580;9.758;2023-02-26T04:29:28;4.07;;;1.63;;
12312;SDS011;6220;53.580;9.758;2023-02-26T04:31:53;5.40;;;1.80;;
12312;SDS011;6220;53.580;9.758;2023-02-26T04:34:18;5.03;;;1.60;;
12312;SDS011;6220;53.580;9.758;2023-02-26T04:36:44;4.47;;;1.63;;
12312;SDS011;6220;53.580;9.758;2023-02-26T04:39:09;2.90;;;1.37;;
12312;SDS011;6220;53.580;9.758;2023-02-26T04:41:36;3.97;;;1.60;;
12312;SDS011;6220;53.580;9.758;2023-02-26T04:44:02;1.93;;;1.27;;
12312;SDS011;6220;53.580;9.758;2023-02-26T04:46:28;3.57;;;1.53;;
12312;SDS011;6220;53.580;9.758;2023-02-26T04:48:53;3.07;;;1.50;;
12312;SDS011;6220;53.580;9.758;2023-02-26T04:51:19;8.93;;;1.90;;
12312;SDS011;6220;53.580;9.758;2023-02-26T04:53:44;6.10;;;1.70;;
12312;SDS011;6220;53.580;9.758;2023-02-26T04:56:09;3.43;;;1.57;;
12312;SDS011;6220;53.580;9.758;2023-02-26T04:58:35;4.67;;;1.60;;
12312;SDS011;6220;53.580;9.758;2023-02-26T05:01:00;3.57;;;1.70;;
12312;SDS011;6220;53.580;9.758;2023-02-26T05:03:25;5.70;;;1.50;;
12312;SDS011;6220;53.580;9.758;2023-02-26T05:05:51;3.40;;;1.43;;
12312;SDS011;6220;53.580;9.758;2023-02-26T05:08:16;3.63;;;1.57;;
12312;SDS011;6220;53.580;9.758;2023-02-26T05:10:41;5.23;;;1.60;;
12312;SDS011;6220;53.580;9.758;2023-02-26T05:13:07;4.50;;;1.40;;
12312;SDS011;6220;53.580;9.758;2023-02-26T05:15:32;3.07;;;1.53;;
12312;SDS011;6220;53.580;9.758;2023-02-26T05:17:58;5.50;;;1.93;;
12312;SDS011;6220;53.580;9.758;2023-02-26T05:20:23;4.73;;;1.77;;
12312;SDS011;6220;53.580;9.758;2023-02-26T05:22:48;3.13;;;1.40;;
12312;SDS011;6220;53.580;9.758;2023-02-26T05:25:14;4.00;;;1.43;;
12312;SDS011;6220;53.580;9.758;2023-02-26T05:27:40;3.43;;;1.80;;
12312;SDS011;6220;53.580;9.758;2023-02-26T05:30:09;2.57;;;1.40;;
12312;SDS011;6220;53.580;9.758;2023-02-26T05:32:36;4.90;;;1.60;;
12312;SDS011;6220;53.580;9.758;2023-02-26T05:35:01;3.37;;;1.40;;
12312;SDS011;6220;53.580;9.758;2023-02-26T05:37:27;5.30;;;1.43;;
12312;SDS011;6220;53.580;9.758;2023-02-26T05:39:52;4.83;;;1.60;;
12312;SDS011;6220;53.580;9.758;2023-02-26T05:42:17;4.53;;;1.60;;
12312;SDS011;6220;53.580;9.758;2023-02-26T05:44:43;4.00;;;1.30;;
12312;SDS011;6220;53.580;9.758;2023-02-26T05:47:08;4.93;;;1.73;;
12312;SDS011;6220;53.580;9.758;2023-02-26T05:49:33;3.33;;;1.63;;
12312;SDS011;6220;53.580;9.758;2023-02-26T05:51:59;4.13;;;1.40;;
12312;SDS011;6220;53.580;9.758;2023-02-26T05:54:24;4.90;;;1.80;;
12312;SDS011;6220;53.580;9.758;2023-02-26T05:56:50;5.57;;;1.60;;
12312;SDS011;6220;53.580;9.758;2023-02-26T05:59:15;4.83;;;1.50;;
12312;SDS011;6220;53.580;9.758;2023-02-26T06:01:41;3.20;;;1.47;;
12312;SDS011;6220;53.580;9.758;2023-02-26T06:04:06;3.17;;;1.67;;
12312;SDS011;6220;53.580;9.758;2023-02-26T06:06:32;4.20;;;1.60;;
12312;SDS011;6220;53.580;9.758;2023-02-26T06:08:57;3.63;;;1.67;;
12312;SDS011;6220;53.580;9.758;2023-02-26T06:11:25;5.33;;;1.87;;
12312;SDS011;6220;53.580;9.758;2023-02-26T06:13:50;4.03;;;1.37;;
12312;SDS011;6220;53.580;9.758;2023-02-26T06:16:15;4.47;;;1.63;;
12312;SDS011;6220;53.580;9.758;2023-02-26T06:18:41;4.23;;;1.80;;
12312;SDS011;6220;53.580;9.758;2023-02-26T06:21:06;3.60;;;1.63;;
12312;SDS011;6220;53.580;9.758;2023-02-26T06:23:31;5.20;;;1.90;;
12312;SDS011;6220;53.580;9.758;2023-02-26T06:25:57;5.50;;;1.67;;
12312;SDS011;6220;53.580;9.758;2023-02-26T06:28:24;4.30;;;1.60;;
12312;SDS011;6220;53.580;9.758;2023-02-26T06:30:50;6.70;;;1.83;;
12312;SDS011;6220;53.580;9.758;2023-02-26T06:33:17;2.57;;;1.60;;
12312;SDS011;6220;53.580;9.758;2023-02-26T06:35:42;2.97;;;1.50;;
12312;SDS011;6220;53.580;9.758;2023-02-26T06:38:07;4.13;;;1.43;;
12312;SDS011;6220;53.580;9.758;2023-02-26T06:40:32;3.07;;;1.50;;
12312;SDS011;6220;53.580;9.758;2023-02-26T06:42:58;3.33;;;1.67;;
12312;SDS011;6220;53.580;9.758;2023-02-26T06:45:23;4.80;;;1.60;;
12312;SDS011;6220;53.580;9.758;2023-02-26T06:47:49;3.10;;;1.50;;
12312;SDS011;6220;53.580;9.758;2023-02-26T06:50:15;4.53;;;1.80;;
12312;SDS011;6220;53.580;9.758;2023-02-26T06:52:40;3.80;;;1.73;;
12312;SDS011;6220;53.580;9.758;2023-02-26T06:55:06;6.40;;;2.00;;
12312;SDS011;6220;53.580;9.758;2023-02-26T06:57:32;3.23;;;1.87;;
12312;SDS011;6220;53.580;9.758;2023-02-26T06:59:57;4.43;;;1.60;;
12312;SDS011;6220;53.580;9.758;2023-02-26T07:02:23;3.20;;;1.70;;
12312;SDS011;6220;53.580;9.758;2023-02-26T07:04:48;6.63;;;1.90;;
12312;SDS011;6220;53.580;9.758;2023-02-26T07:07:14;4.20;;;1.63;;
12312;SDS011;6220;53.580;9.758;2023-02-26T07:09:40;3.80;;;1.50;;
12312;SDS011;6220;53.580;9.758;2023-02-26T07:12:05;4.60;;;2.13;;
12312;SDS011;6220;53.580;9.758;2023-02-26T07:14:34;3.63;;;1.53;;
12312;SDS011;6220;53.580;9.758;2023-02-26T07:17:00;4.37;;;1.87;;
12312;SDS011;6220;53.580;9.758;2023-02-26T07:19:25;3.93;;;1.60;;
12312;SDS011;6220;53.580;9.758;2023-02-26T07:21:51;3.60;;;1.90;;
12312;SDS011;6220;53.580;9.758;2023-02-26T07:24:16;3.43;;;1.57;;
12312;SDS011;6220;53.580;9.758;2023-02-26T07:26:42;2.83;;;1.80;;
12312;SDS011;6220;53.580;9.758;2023-02-26T07:29:07;4.43;;;2.07;;
12312;SDS011;6220;53.580;9.758;2023-02-26T07:31:33;2.97;;;1.73;;
12312;SDS011;6220;53.580;9.758;2023-02-26T07:33:58;4.13;;;2.07;;
12312;SDS011;6220;53.580;9.758;2023-02-26T07:36:23;5.03;;;2.07;;
12312;SDS011;6220;53.580;9.758;2023-02-26T07:38:49;2.77;;;1.93;;
12312;SDS011;6220;53.580;9.758;2023-02-26T07:41:14;5.70;;;1.93;;
12312;SDS011;6220;53.580;9.758;2023-02-26T07:43:39;5.13;;;2.23;;
12312;SDS011;6220;53.580;9.758;2023-02-26T07:46:06;3.27;;;1.57;;
12312;SDS011;6220;53.580;9.758;2023-02-26T07:48:31;2.83;;;1.80;;
12312;SDS011;6220;53.580;9.758;2023-02-26T07:50:57;2.93;;;2.07;;
12312;SDS011;6220;53.580;9.758;2023-02-26T07:53:22;6.40;;;1.90;;
12312;SDS011;6220;53.580;9.758;2023-02-26T07:55:47;5.10;;;1.90;;
12312;SDS011;6220;53.580;9.758;2023-02-26T07:58:13;3.00;;;1.90;;
12312;SDS011;6220;53.580;9.758;2023-02-26T08:00:38;7.27;;;2.23;;
12312;SDS011;6220;53.580;9.758;2023-02-26T08:03:03;6.50;;;2.20;;
12312;SDS011;6220;53.580;9.758;2023-02-26T08:05:29;4.27;;;2.03;;
12312;SDS011;6220;53.580;9.758;2023-02-26T08:07:54;4.70;;;2.23;;
12312;SDS011;6220;53.580;9.758;2023-02-26T08:10:19;5.67;;;2.40;;
12312;SDS011;6220;53.580;9.758;2023-02-26T08:12:45;5.10;;;2.20;;
12312;SDS011;6220;53.580;9.758;2023-02-26T08:15:10;4.13;;;2.07;;
12312;SDS011;6220;53.580;9.758;2023-02-26T08:17:38;5.03;;;2.40;;
12312;SDS011;6220;53.580;9.758;2023-02-26T08:20:04;4.20;;;2.73;;
12312;SDS011;6220;53.580;9.758;2023-02-26T08:22:29;4.27;;;2.27;;
12312;SDS011;6220;53.580;9.758;2023-02-26T08:24:55;3.80;;;2.10;;
12312;SDS011;6220;53.580;9.758;2023-02-26T08:27:20;4.43;;;2.30;;
12312;SDS011;6220;53.580;9.758;2023-02-26T08:29:45;4.80;;;2.07;;
12312;SDS011;6220;53.580;9.758;2023-02-26T08:32:14;5.63;;;2.27;;
12312;SDS011;6220;53.580;9.758;2023-02-26T08:34:39;6.07;;;2.30;;
12312;SDS011;6220;53.580;9.758;2023-02-26T08:37:04;9.23;;;2.27;;
12312;SDS011;6220;53.580;9.758;2023-02-26T08:39:33;3.60;;;2.33;;
12312;SDS011;6220;53.580;9.758;2023-02-26T08:42:02;6.63;;;2.37;;
12312;SDS011;6220;53.580;9.758;2023-02-26T08:44:27;4.77;;;1.87;;
12312;SDS011;6220;53.580;9.758;2023-02-26T08:46:52;2.40;;;1.73;;
12312;SDS011;6220;53.580;9.758;2023-02-26T08:49:18;4.80;;;1.83;;
12312;SDS011;6220;53.580;9.758;2023-02-26T08:51:43;3.30;;;2.10;;
12312;SDS011;6220;53.580;9.758;2023-02-26T08:54:08;3.63;;;2.00;;
12312;SDS011;6220;53.580;9.758;2023-02-26T08:56:34;5.03;;;2.33;;
12312;SDS011;6220;53.580;9.758;2023-02-26T08:58:59;5.70;;;1.70;;
12312;SDS011;6220;53.580;9.758;2023-02-26T09:01:24;6.13;;;1.83;;
12312;SDS011;6220;53.580;9.758;2023-02-26T09:03:50;2.03;;;1.50;;
12312;SDS011;6220;53.580;9.758;2023-02-26T09:06:15;2.00;;;1.30;;
12312;SDS011;6220;53.580;9.758;2023-02-26T09:08:40;4.70;;;1.87;;
12312;SDS011;6220;53.580;9.758;2023-02-26T09:11:06;2.87;;;1.60;;
12312;SDS011;6220;53.580;9.758;2023-02-26T09:13:31;2.67;;;1.43;;
12312;SDS011;6220;53.580;9.758;2023-02-26T09:15:56;3.33;;;1.67;;
12312;SDS011;6220;53.580;9.758;2023-02-26T09:18:22;1.70;;;1.50;;
12312;SDS011;6220;53.580;9.758;2023-02-26T09:20:48;2.27;;;1.30;;
12312;SDS011;6220;53.580;9.758;2023-02-26T09:23:13;3.47;;;1.53;;
12312;SDS011;6220;53.580;9.758;2023-02-26T09:25:38;4.90;;;2.00;;
12312;SDS011;6220;53.580;9.758;2023-02-26T09:28:04;2.37;;;1.53;;
12312;SDS011;6220;53.580;9.758;2023-02-26T09:30:29;2.37;;;1.53;;
12312;SDS011;6220;53.580;9.758;2023-02-26T09:32:55;1.90;;;1.20;;
12312;SDS011;6220;53.580;9.758;2023-02-26T09:35:20;2.00;;;1.43;;
12312;SDS011;6220;53.580;9.758;2023-02-26T09:37:46;1.73;;;1.20;;
12312;SDS011;6220;53.580;9.758;2023-02-26T09:43:30;2.90;;;1.30;;
12312;SDS011;6220;53.580;9.758;2023-02-26T09:45:58;1.83;;;1.30;;
12312;SDS011;6220;53.580;9.758;2023-02-26T09:48:30;3.20;;;1.30;;
12312;SDS011;6220;53.580;9.758;2023-02-26T09:50:58;1.40;;;1.30;;
12312;SDS011;6220;53.580;9.758;2023-02-26T09:53:34;2.10;;;1.30;;
12312;SDS011;6220;53.580;9.758;2023-02-26T09:56:06;1.63;;;1.20;;
12312;SDS011;6220;53.580;9.758;2023-02-26T09:58:33;4.47;;;1.30;;
12312;SDS011;6220;53.580;9.758;2023-02-26T10:12:12;3.07;;;1.80;;
12312;SDS011;6220;53.580;9.758;2023-02-26T10:23:21;2.30;;;1.40;;
12312;SDS011;6220;53.580;9.758;2023-02-26T10:25:55;2.53;;;1.30;;
12312;SDS011;6220;53.580;9.758;2023-02-26T10:28:33;3.07;;;1.30;;
12312;SDS011;6220;53.580;9.758;2023-02-26T10:39:56;2.30;;;1.50;;
12312;SDS011;6220;53.580;9.758;2023-02-26T10:42:27;2.60;;;1.63;;
12312;SDS011;6220;53.580;9.758;2023-02-26T10:47:53;2.97;;;1.23;;
12312;SDS011;6220;53.580;9.758;2023-02-26T10:50:27;1.73;;;1.27;;
12312;SDS011;6220;53.580;9.758;2023-02-26T10:52:53;2.87;;;1.20;;
12312;SDS011;6220;53.580;9.758;2023-02-26T10:55:37;2.83;;;1.63;;
12312;SDS011;6220;53.580;9.758;2023-02-26T10:58:39;4.07;;;1.40;;
12312;SDS011;6220;53.580;9.758;2023-02-26T11:00:57;1.90;;;1.40;;
12312;SDS011;6220;53.580;9.758;2023-02-26T11:06:02;2.37;;;1.10;;
12312;SDS011;6220;53.580;9.758;2023-02-26T11:08:42;2.00;;;1.40;;
12312;SDS011;6220;53.580;9.758;2023-02-26T11:11:08;2.20;;;1.40;;
12312;SDS011;6220;53.580;9.758;2023-02-26T11:13:35;1.97;;;1.20;;
12312;SDS011;6220;53.580;9.758;2023-02-26T11:16:05;3.03;;;1.60;;
12312;SDS011;6220;53.580;9.758;2023-02-26T11:18:39;2.80;;;1.73;;
12312;SDS011;6220;53.580;9.758;2023-02-26T11:21:15;3.23;;;1.77;;
12312;SDS011;6220;53.580;9.758;2023-02-26T11:23:42;3.97;;;1.70;;
12312;SDS011;6220;53.580;9.758;2023-02-26T11:26:15;3.23;;;1.97;;
12312;SDS011;6220;53.580;9.758;2023-02-26T11:31:09;5.57;;;2.20;;
12312;SDS011;6220;53.580;9.758;2023-02-26T11:33:36;3.23;;;2.37;;
12312;SDS011;6220;53.580;9.758;2023-02-26T11:36:05;4.90;;;3.50;;
12312;SDS011;6220;53.580;9.758;2023-02-26T11:38:33;2.83;;;1.63;;
12312;SDS011;6220;53.580;9.758;2023-02-26T11:40:58;1.83;;;1.30;;
12312;SDS011;6220;53.580;9.758;2023-02-26T11:43:25;3.53;;;1.33;;
12312;SDS011;6220;53.580;9.758;2023-02-26T11:45:59;3.43;;;1.33;;
12312;SDS011;6220;53.580;9.758;2023-02-26T11:48:47;3.80;;;1.40;;
12312;SDS011;6220;53.580;9.758;2023-02-26T11:51:12;2.70;;;1.47;;
12312;SDS011;6220;53.580;9.758;2023-02-26T11:53:42;4.23;;;1.50;;
12312;SDS011;6220;53.580;9.758;2023-02-26T11:56:14;3.00;;;1.63;;
12312;SDS011;6220;53.580;9.758;2023-02-26T11:58:44;4.23;;;1.50;;
12312;SDS011;6220;53.580;9.758;2023-02-26T12:01:11;2.83;;;1.30;;
12312;SDS011;6220;53.580;9.758;2023-02-26T12:03:37;4.00;;;1.70;;
12312;SDS011;6220;53.580;9.758;2023-02-26T12:06:13;3.57;;;1.77;;
12312;SDS011;6220;53.580;9.758;2023-02-26T12:08:40;3.40;;;1.53;;
12312;SDS011;6220;53.580;9.758;2023-02-26T12:22:49;3.73;;;1.40;;
12312;SDS011;6220;53.580;9.758;2023-02-26T12:25:25;4.03;;;1.30;;
12312;SDS011;6220;53.580;9.758;2023-02-26T12:30:58;4.30;;;1.90;;
12312;SDS011;6220;53.580;9.758;2023-02-26T12:49:52;2.77;;;1.43;;
12312;SDS011;6220;53.580;9.758;2023-02-26T13:19:50;3.57;;;1.83;;
12312;SDS011;6220;53.580;9.758;2023-02-26T13:27:21;2.93;;;1.60;;
12312;SDS011;6220;53.580;9.758;2023-02-26T13:30:05;1.93;;;1.37;;
12312;SDS011;6220;53.580;9.758;2023-02-26T13:32:41;4.10;;;1.60;;
12312;SDS011;6220;53.580;9.758;2023-02-26T13:35:21;3.03;;;1.70;;
12312;SDS011;6220;53.580;9.758;2023-02-26T13:37:52;3.23;;;1.90;;
12312;SDS011;6220;53.580;9.758;2023-02-26T13:40:27;6.40;;;1.77;;
12312;SDS011;6220;53.580;9.758;2023-02-26T13:43:00;4.40;;;1.50;;
12312;SDS011;6220;53.580;9.758;2023-02-26T13:45:37;3.67;;;2.40;;
12312;SDS011;6220;53.580;9.758;2023-02-26T13:51:06;3.33;;;1.37;;
12312;SDS011;6220;53.580;9.758;2023-02-26T13:56:14;7.77;;;1.60;;
12312;SDS011;6220;53.580;9.758;2023-02-26T13:58:48;4.87;;;1.63;;
12312;SDS011;6220;53.580;9.758;2023-02-26T14:01:18;3.23;;;1.60;;
12312;SDS011;6220;53.580;9.758;2023-02-26T14:03:50;2.90;;;1.50;;
12312;SDS011;6220;53.580;9.758;2023-02-26T14:08:50;3.77;;;1.70;;
12312;SDS011;6220;53.580;9.758;2023-02-26T14:11:38;4.80;;;1.70;;
12312;SDS011;6220;53.580;9.758;2023-02-26T14:16:38;4.87;;;1.77;;
12312;SDS011;6220;53.580;9.758;2023-02-26T14:19:21;3.57;;;1.83;;
12312;SDS011;6220;53.580;9.758;2023-02-26T14:21:52;3.40;;;1.60;;
12312;SDS011;6220;53.580;9.758;2023-02-26T14:27:46;5.63;;;2.37;;
12312;SDS011;6220;53.580;9.758;2023-02-26T14:35:35;4.73;;;2.27;;
12312;SDS011;6220;53.580;9.758;2023-02-26T14:38:05;3.30;;;1.70;;
12312;SDS011;6220;53.580;9.758;2023-02-26T14:40:38;3.97;;;1.60;;
12312;SDS011;6220;53.580;9.758;2023-02-26T14:43:07;6.27;;;1.90;;
12312;SDS011;6220;53.580;9.758;2023-02-26T14:45:40;2.83;;;1.50;;
12312;SDS011;6220;53.580;9.758;2023-02-26T14:48:13;5.70;;;3.30;;
12312;SDS011;6220;53.580;9.758;2023-02-26T14:59:23;4.47;;;1.70;;
12312;SDS011;6220;53.580;9.758;2023-02-26T15:02:20;6.30;;;1.67;;
12312;SDS011;6220;53.580;9.758;2023-02-26T15:08:05;2.60;;;1.50;;
12312;SDS011;6220;53.580;9.758;2023-02-26T15:16:46;4.97;;;1.60;;
12312;SDS011;6220;53.580;9.758;2023-02-26T15:24:54;2.87;;;1.63;;
12312;SDS011;6220;53.580;9.758;2023-02-26T15:27:20;2.63;;;1.40;;
12312;SDS011;6220;53.580;9.758;2023-02-26T15:29:45;5.33;;;1.80;;
12312;SDS011;6220;53.580;9.758;2023-02-26T15:32:14;4.17;;;2.27;;
12312;SDS011;6220;53.580;9.758;2023-02-26T15:35:00;10.03;;;4.80;;
12312;SDS011;6220;53.580;9.758;2023-02-26T15:37:28;8.57;;;5.07;;
12312;SDS011;6220;53.580;9.758;2023-02-26T15:39:57;4.83;;;1.80;;
12312;SDS011;6220;53.580;9.758;2023-02-26T15:42:26;4.63;;;3.00;;
12312;SDS011;6220;53.580;9.758;2023-02-26T15:44:54;3.63;;;2.10;;
12312;SDS011;6220;53.580;9.758;2023-02-26T15:47:21;3.30;;;1.60;;
12312;SDS011;6220;53.580;9.758;2023-02-26T15:49:47;2.47;;;1.60;;
12312;SDS011;6220;53.580;9.758;2023-02-26T15:52:19;1.83;;;1.43;;
12312;SDS011;6220;53.580;9.758;2023-02-26T15:54:51;3.00;;;2.17;;
12312;SDS011;6220;53.580;9.758;2023-02-26T15:57:18;5.10;;;1.73;;
12312;SDS011;6220;53.580;9.758;2023-02-26T15:59:45;3.27;;;1.93;;
12312;SDS011;6220;53.580;9.758;2023-02-26T16:02:17;4.20;;;1.80;;
12312;SDS011;6220;53.580;9.758;2023-02-26T16:04:44;3.73;;;1.40;;
12312;SDS011;6220;53.580;9.758;2023-02-26T16:07:10;4.93;;;1.87;;
12312;SDS011;6220;53.580;9.758;2023-02-26T16:09:40;4.83;;;1.43;;
12312;SDS011;6220;53.580;9.758;2023-02-26T16:12:11;2.83;;;1.50;;
12312;SDS011;6220;53.580;9.758;2023-02-26T16:14:40;2.07;;;1.27;;
12312;SDS011;6220;53.580;9.758;2023-02-26T16:17:11;2.70;;;1.30;;
12312;SDS011;6220;53.580;9.758;2023-02-26T16:19:47;5.10;;;1.80;;
12312;SDS011;6220;53.580;9.758;2023-02-26T16:22:19;3.77;;;1.50;;
12312;SDS011;6220;53.580;9.758;2023-02-26T16:24:50;2.90;;;1.40;;
12312;SDS011;6220;53.580;9.758;2023-02-26T16:27:18;4.97;;;1.60;;
12312;SDS011;6220;53.580;9.758;2023-02-26T16:29:48;4.90;;;1.63;;
12312;SDS011;6220;53.580;9.758;2023-02-26T16:32:15;3.10;;;1.70;;
12312;SDS011;6220;53.580;9.758;2023-02-26T16:39:55;2.43;;;2.10;;
12312;SDS011;6220;53.580;9.758;2023-02-26T16:43:32;4.03;;;2.40;;
12312;SDS011;6220;53.580;9.758;2023-02-26T16:45:21;6.80;;;2.40;;
12312;SDS011;6220;53.580;9.758;2023-02-26T16:47:59;4.83;;;2.50;;
12312;SDS011;6220;53.580;9.758;2023-02-26T16:50:26;4.93;;;2.20;;
12312;SDS011;6220;53.580;9.758;2023-02-26T16:52:57;5.67;;;2.57;;
12312;SDS011;6220;53.580;9.758;2023-02-26T16:55:45;8.07;;;3.40;;
12312;SDS011;6220;53.580;9.758;2023-02-26T16:58:14;5.63;;;2.10;;
12312;SDS011;6220;53.580;9.758;2023-02-26T17:00:42;4.83;;;2.07;;
12312;SDS011;6220;53.580;9.758;2023-02-26T17:03:16;6.67;;;2.97;;
12312;SDS011;6220;53.580;9.758;2023-02-26T17:05:51;9.13;;;2.90;;
12312;SDS011;6220;53.580;9.758;2023-02-26T17:08:27;5.93;;;2.43;;
12312;SDS011;6220;53.580;9.758;2023-02-26T17:11:01;3.83;;;2.83;;
12312;SDS011;6220;53.580;9.758;2023-02-26T17:13:29;5.17;;;3.13;;
12312;SDS011;6220;53.580;9.758;2023-02-26T17:16:07;6.77;;;3.20;;
12312;SDS011;6220;53.580;9.758;2023-02-26T17:18:35;4.70;;;2.50;;
12312;SDS011;6220;53.580;9.758;2023-02-26T17:21:00;3.77;;;2.60;;
12312;SDS011;6220;53.580;9.758;2023-02-26T17:23:28;4.70;;;2.73;;
12312;SDS011;6220;53.580;9.758;2023-02-26T17:25:55;4.07;;;2.40;;
12312;SDS011;6220;53.580;9.758;2023-02-26T17:28:25;4.97;;;3.20;;
12312;SDS011;6220;53.580;9.758;2023-02-26T17:30:51;4.77;;;3.10;;
12312;SDS011;6220;53.580;9.758;2023-02-26T17:33:17;4.97;;;2.50;;
12312;SDS011;6220;53.580;9.758;2023-02-26T17:35:43;4.97;;;2.10;;
12312;SDS011;6220;53.580;9.758;2023-02-26T17:38:12;8.17;;;3.57;;
12312;SDS011;6220;53.580;9.758;2023-02-26T17:40:38;5.83;;;3.47;;
12312;SDS011;6220;53.580;9.758;2023-02-26T17:43:05;3.30;;;2.50;;
12312;SDS011;6220;53.580;9.758;2023-02-26T17:45:33;6.07;;;2.20;;
12312;SDS011;6220;53.580;9.758;2023-02-26T17:47:59;4.27;;;1.90;;
12312;SDS011;6220;53.580;9.758;2023-02-26T17:50:30;4.53;;;2.00;;
12312;SDS011;6220;53.580;9.758;2023-02-26T17:53:08;5.77;;;2.03;;
12312;SDS011;6220;53.580;9.758;2023-02-26T17:55:33;2.60;;;1.80;;
12312;SDS011;6220;53.580;9.758;2023-02-26T17:58:01;4.20;;;2.00;;
12312;SDS011;6220;53.580;9.758;2023-02-26T18:00:27;4.63;;;2.70;;
12312;SDS011;6220;53.580;9.758;2023-02-26T18:02:52;2.80;;;1.90;;
12312;SDS011;6220;53.580;9.758;2023-02-26T18:05:18;3.80;;;2.07;;
12312;SDS011;6220;53.580;9.758;2023-02-26T18:07:44;5.00;;;2.60;;
12312;SDS011;6220;53.580;9.758;2023-02-26T18:10:15;4.57;;;2.63;;
12312;SDS011;6220;53.580;9.758;2023-02-26T18:12:42;4.83;;;2.23;;
12312;SDS011;6220;53.580;9.758;2023-02-26T18:15:08;9.20;;;2.63;;
12312;SDS011;6220;53.580;9.758;2023-02-26T18:17:35;2.83;;;2.10;;